sensor_id;sensor_type;location;lat;lon;timestamp;pressure;altitude;pressure_sealevel;temperature;humidity
71917;BME280;59793;46.506;6.674;2023-03-19T00:02:02;97071.97;;;12.02;55.40
71917;BME280;59793;46.506;6.674;2023-03-19T00:04:28;97046.25;;;11.79;56.09
71917;BME280;59793;46.506;6.674;2023-03-19T00:06:53;97067.25;;;11.91;55.99
71917;BME280;59793;46.506;6.674;2023-03-19T00:09:19;97061.25;;;11.75;56.33
71917;BME280;59793;46.506;6.674;2023-03-19T00:11:46;97093.34;;;11.77;56.29
71917;BME280;59793;46.506;6.674;2023-03-19T00:14:11;97060.81;;;11.54;57.80
71917;BME280;59793;46.506;6.674;2023-03-19T00:16:37;97052.63;;;11.59;59.49
71917;BME280;59793;46.506;6.674;2023-03-19T00:19:02;97049.75;;;11.48;60.64
71917;BME280;59793;46.506;6.674;2023-03-19T00:21:28;97099.78;;;11.60;62.02
71917;BME280;59793;46.506;6.674;2023-03-19T00:23:54;97047.44;;;11.27;64.34
71917;BME280;59793;46.506;6.674;2023-03-19T00:26:26;97074.69;;;11.15;65.20
71917;BME280;59793;46.506;6.674;2023-03-19T00:28:52;97072.09;;;10.99;65.99
71917;BME280;59793;46.506;6.674;2023-03-19T00:31:18;97095.09;;;11.18;64.69
71917;BME280;59793;46.506;6.674;2023-03-19T00:33:43;97077.69;;;11.14;65.40
71917;BME280;59793;46.506;6.674;2023-03-19T00:36:09;97075.06;;;10.98;66.76
71917;BME280;59793;46.506;6.674;2023-03-19T00:38:35;97094.19;;;10.95;67.85
71917;BME280;59793;46.506;6.674;2023-03-19T00:41:02;97087.84;;;10.96;69.51
71917;BME280;59793;46.506;6.674;2023-03-19T00:43:27;97091.63;;;10.98;68.54
71917;BME280;59793;46.506;6.674;2023-03-19T00:45:53;97110.25;;;11.06;68.89
71917;BME280;59793;46.506;6.674;2023-03-19T00:48:19;97065.56;;;10.62;70.68
71917;BME280;59793;46.506;6.674;2023-03-19T00:50:46;97089.09;;;10.55;71.79
71917;BME280;59793;46.506;6.674;2023-03-19T00:53:11;97094.81;;;10.57;72.99
71917;BME280;59793;46.506;6.674;2023-03-19T00:55:36;97108.75;;;10.73;72.72
71917;BME280;59793;46.506;6.674;2023-03-19T00:58:02;97095.31;;;10.46;74.44
71917;BME280;59793;46.506;6.674;2023-03-19T01:00:27;97098.25;;;10.45;74.60
71917;BME280;59793;46.506;6.674;2023-03-19T01:02:53;97091.00;;;10.26;74.17
71917;BME280;59793;46.506;6.674;2023-03-19T01:05:18;97115.25;;;10.47;73.20
71917;BME280;59793;46.506;6.674;2023-03-19T01:07:44;97093.34;;;10.43;71.24
71917;BME280;59793;46.506;6.674;2023-03-19T01:10:10;97095.47;;;10.69;68.89
71917;BME280;59793;46.506;6.674;2023-03-19T01:12:35;97094.72;;;10.69;71.80
71917;BME280;59793;46.506;6.674;2023-03-19T01:15:02;97075.16;;;10.70;72.01
71917;BME280;59793;46.506;6.674;2023-03-19T01:17:28;97074.75;;;10.68;74.52
71917;BME280;59793;46.506;6.674;2023-03-19T01:19:53;97081.47;;;10.49;75.37
71917;BME280;59793;46.506;6.674;2023-03-19T01:22:19;97086.97;;;10.44;75.71
71917;BME280;59793;46.506;6.674;2023-03-19T01:24:44;97070.53;;;10.35;75.28
71917;BME280;59793;46.506;6.674;2023-03-19T01:27:11;97063.25;;;10.44;73.79
71917;BME280;59793;46.506;6.674;2023-03-19T01:29:36;97076.53;;;10.64;72.61
71917;BME280;59793;46.506;6.674;2023-03-19T01:32:02;97092.53;;;10.71;74.51
71917;BME280;59793;46.506;6.674;2023-03-19T01:34:27;97098.38;;;10.80;74.09
71917;BME280;59793;46.506;6.674;2023-03-19T01:36:52;97061.31;;;10.57;73.07
71917;BME280;59793;46.506;6.674;2023-03-19T01:39:18;97023.06;;;10.47;72.81
71917;BME280;59793;46.506;6.674;2023-03-19T01:41:43;97051.72;;;10.65;72.15
71917;BME280;59793;46.506;6.674;2023-03-19T01:44:41;97089.78;;;10.83;72.56
71917;BME280;59793;46.506;6.674;2023-03-19T01:47:14;97058.78;;;10.61;73.10
71917;BME280;59793;46.506;6.674;2023-03-19T01:49:41;97081.69;;;10.44;73.54
71917;BME280;59793;46.506;6.674;2023-03-19T01:52:10;97075.56;;;10.40;71.58
71917;BME280;59793;46.506;6.674;2023-03-19T01:54:37;97086.81;;;10.53;72.40
71917;BME280;59793;46.506;6.674;2023-03-19T01:57:09;97057.91;;;10.41;73.00
71917;BME280;59793;46.506;6.674;2023-03-19T01:59:40;97076.19;;;10.49;73.95
71917;BME280;59793;46.506;6.674;2023-03-19T02:02:34;97074.56;;;10.45;73.04
71917;BME280;59793;46.506;6.674;2023-03-19T02:05:23;97081.19;;;10.55;72.35
71917;BME280;59793;46.506;6.674;2023-03-19T02:07:52;97081.09;;;10.67;71.05
71917;BME280;59793;46.506;6.674;2023-03-19T02:10:19;97087.06;;;10.64;71.23
71917;BME280;59793;46.506;6.674;2023-03-19T02:12:45;97046.09;;;10.50;70.21
71917;BME280;59793;46.506;6.674;2023-03-19T02:15:11;97068.09;;;10.58;71.02
71917;BME280;59793;46.506;6.674;2023-03-19T02:17:37;97087.25;;;10.71;71.39
71917;BME280;59793;46.506;6.674;2023-03-19T02:20:11;97085.53;;;10.63;72.13
71917;BME280;59793;46.506;6.674;2023-03-19T02:22:47;97061.56;;;10.36;71.46
71917;BME280;59793;46.506;6.674;2023-03-19T02:25:23;97060.63;;;10.28;71.63
71917;BME280;59793;46.506;6.674;2023-03-19T02:27:52;97071.41;;;10.39;71.52
71917;BME280;59793;46.506;6.674;2023-03-19T02:30:27;97092.94;;;10.57;70.65
71917;BME280;59793;46.506;6.674;2023-03-19T02:32:53;97072.28;;;10.59;69.61
71917;BME280;59793;46.506;6.674;2023-03-19T02:35:18;97087.91;;;10.84;69.61
71917;BME280;59793;46.506;6.674;2023-03-19T02:37:43;97059.19;;;10.63;69.94
71917;BME280;59793;46.506;6.674;2023-03-19T02:40:19;97064.38;;;10.75;69.69
71917;BME280;59793;46.506;6.674;2023-03-19T02:42:46;97095.50;;;10.85;70.16
71917;BME280;59793;46.506;6.674;2023-03-19T02:45:12;97049.84;;;10.49;70.29
71917;BME280;59793;46.506;6.674;2023-03-19T02:47:37;97039.56;;;10.28;70.27
71917;BME280;59793;46.506;6.674;2023-03-19T02:53:56;97099.47;;;10.63;70.51
71917;BME280;59793;46.506;6.674;2023-03-19T02:56:21;97087.00;;;10.60;70.50
71917;BME280;59793;46.506;6.674;2023-03-19T02:58:47;97072.69;;;10.45;70.82
71917;BME280;59793;46.506;6.674;2023-03-19T03:01:12;97062.22;;;10.33;71.33
71917;BME280;59793;46.506;6.674;2023-03-19T03:03:37;97093.91;;;10.37;72.31
71917;BME280;59793;46.506;6.674;2023-03-19T03:06:03;97022.59;;;9.86;72.59
71917;BME280;59793;46.506;6.674;2023-03-19T03:08:29;97013.56;;;9.71;72.10
71917;BME280;59793;46.506;6.674;2023-03-19T03:10:54;97052.16;;;10.07;71.21
71917;BME280;59793;46.506;6.674;2023-03-19T03:13:19;97093.81;;;10.33;71.62
71917;BME280;59793;46.506;6.674;2023-03-19T03:15:45;97072.38;;;10.19;71.80
71917;BME280;59793;46.506;6.674;2023-03-19T03:18:10;97066.91;;;10.12;70.98
71917;BME280;59793;46.506;6.674;2023-03-19T03:20:36;97063.84;;;10.10;70.64
71917;BME280;59793;46.506;6.674;2023-03-19T03:23:01;97054.78;;;10.23;70.30
71917;BME280;59793;46.506;6.674;2023-03-19T03:25:27;97065.88;;;10.44;70.37
71917;BME280;59793;46.506;6.674;2023-03-19T03:27:54;97076.44;;;10.60;70.06
71917;BME280;59793;46.506;6.674;2023-03-19T03:30:19;97075.06;;;10.66;69.89
71917;BME280;59793;46.506;6.674;2023-03-19T03:32:45;97037.84;;;10.52;70.17
71917;BME280;59793;46.506;6.674;2023-03-19T03:35:11;97064.28;;;10.71;69.53
71917;BME280;59793;46.506;6.674;2023-03-19T03:37:36;97090.56;;;10.99;69.12
71917;BME280;59793;46.506;6.674;2023-03-19T03:40:03;97058.00;;;10.76;69.03
71917;BME280;59793;46.506;6.674;2023-03-19T03:42:33;97076.00;;;10.90;68.82
71917;BME280;59793;46.506;6.674;2023-03-19T03:44:58;97106.63;;;11.10;68.01
71917;BME280;59793;46.506;6.674;2023-03-19T03:47:23;97068.09;;;10.90;67.51
71917;BME280;59793;46.506;6.674;2023-03-19T03:49:49;97102.34;;;11.06;67.95
71917;BME280;59793;46.506;6.674;2023-03-19T03:52:15;97050.34;;;10.71;68.63
71917;BME280;59793;46.506;6.674;2023-03-19T03:54:40;97021.44;;;10.27;69.72
71917;BME280;59793;46.506;6.674;2023-03-19T03:57:05;97093.59;;;10.70;70.14
71917;BME280;59793;46.506;6.674;2023-03-19T03:59:32;97095.75;;;10.64;70.41
71917;BME280;59793;46.506;6.674;2023-03-19T04:01:57;97083.97;;;10.30;71.66
71917;BME280;59793;46.506;6.674;2023-03-19T04:04:23;97092.56;;;10.15;71.95
71917;BME280;59793;46.506;6.674;2023-03-19T04:06:48;97092.41;;;10.23;71.82
71917;BME280;59793;46.506;6.674;2023-03-19T04:09:14;97061.06;;;10.18;71.03
71917;BME280;59793;46.506;6.674;2023-03-19T04:11:40;97071.47;;;10.27;71.28
71917;BME280;59793;46.506;6.674;2023-03-19T04:14:06;97085.25;;;10.36;70.45
71917;BME280;59793;46.506;6.674;2023-03-19T04:16:33;97043.66;;;10.14;70.05
71917;BME280;59793;46.506;6.674;2023-03-19T04:18:58;97044.66;;;10.09;70.88
71917;BME280;59793;46.506;6.674;2023-03-19T04:21:23;97117.63;;;10.52;71.13
71917;BME280;59793;46.506;6.674;2023-03-19T04:23:50;97072.19;;;10.12;71.13
71917;BME280;59793;46.506;6.674;2023-03-19T04:26:15;97128.09;;;10.49;70.83
71917;BME280;59793;46.506;6.674;2023-03-19T04:28:41;97108.66;;;10.53;70.80
71917;BME280;59793;46.506;6.674;2023-03-19T04:31:06;97095.47;;;10.53;69.80
71917;BME280;59793;46.506;6.674;2023-03-19T04:33:32;97099.38;;;10.60;69.55
71917;BME280;59793;46.506;6.674;2023-03-19T04:35:58;97071.69;;;10.50;70.00
71917;BME280;59793;46.506;6.674;2023-03-19T04:38:24;97116.13;;;10.83;70.09
71917;BME280;59793;46.506;6.674;2023-03-19T04:40:54;97124.66;;;10.92;69.46
71917;BME280;59793;46.506;6.674;2023-03-19T04:43:20;97129.59;;;10.78;70.37
71917;BME280;59793;46.506;6.674;2023-03-19T04:45:46;97135.28;;;10.96;70.23
71917;BME280;59793;46.506;6.674;2023-03-19T04:48:11;97087.94;;;10.68;70.12
71917;BME280;59793;46.506;6.674;2023-03-19T04:50:37;97123.09;;;10.91;70.06
71917;BME280;59793;46.506;6.674;2023-03-19T04:53:02;97082.03;;;10.59;69.95
71917;BME280;59793;46.506;6.674;2023-03-19T04:55:27;97108.31;;;10.71;69.92
71917;BME280;59793;46.506;6.674;2023-03-19T04:57:53;97127.63;;;10.75;70.44
71917;BME280;59793;46.506;6.674;2023-03-19T05:00:18;97083.56;;;10.44;70.80
71917;BME280;59793;46.506;6.674;2023-03-19T05:02:45;97130.75;;;10.65;70.51
71917;BME280;59793;46.506;6.674;2023-03-19T05:05:10;97125.03;;;10.63;70.68
71917;BME280;59793;46.506;6.674;2023-03-19T05:07:38;97131.34;;;10.74;70.36
71917;BME280;59793;46.506;6.674;2023-03-19T05:10:04;97125.41;;;10.77;70.90
71917;BME280;59793;46.506;6.674;2023-03-19T05:12:29;97122.09;;;10.80;71.28
71917;BME280;59793;46.506;6.674;2023-03-19T05:14:55;97107.97;;;10.57;71.42
71917;BME280;59793;46.506;6.674;2023-03-19T05:17:20;97135.44;;;10.71;71.10
71917;BME280;59793;46.506;6.674;2023-03-19T05:19:45;97120.81;;;10.58;70.42
71917;BME280;59793;46.506;6.674;2023-03-19T05:22:11;97107.00;;;10.49;70.26
71917;BME280;59793;46.506;6.674;2023-03-19T05:24:36;97086.88;;;10.41;69.79
71917;BME280;59793;46.506;6.674;2023-03-19T05:27:02;97126.56;;;10.48;71.66
71917;BME280;59793;46.506;6.674;2023-03-19T05:29:28;97075.53;;;9.96;71.75
71917;BME280;59793;46.506;6.674;2023-03-19T05:31:53;97112.78;;;10.11;72.16
71917;BME280;59793;46.506;6.674;2023-03-19T05:34:19;97100.88;;;10.17;70.57
71917;BME280;59793;46.506;6.674;2023-03-19T05:36:44;97130.69;;;10.33;72.31
71917;BME280;59793;46.506;6.674;2023-03-19T05:39:10;97087.97;;;10.12;72.18
71917;BME280;59793;46.506;6.674;2023-03-19T05:41:36;97103.44;;;10.13;71.81
71917;BME280;59793;46.506;6.674;2023-03-19T05:44:01;97116.59;;;10.25;71.45
71917;BME280;59793;46.506;6.674;2023-03-19T05:46:27;97108.53;;;10.34;69.87
71917;BME280;59793;46.506;6.674;2023-03-19T05:48:52;97122.88;;;10.37;68.58
71917;BME280;59793;46.506;6.674;2023-03-19T05:51:17;97099.81;;;10.18;68.86
71917;BME280;59793;46.506;6.674;2023-03-19T05:53:43;97116.41;;;10.34;68.68
71917;BME280;59793;46.506;6.674;2023-03-19T05:56:08;97078.56;;;10.11;68.64
71917;BME280;59793;46.506;6.674;2023-03-19T05:58:34;97139.72;;;10.48;68.82
71917;BME280;59793;46.506;6.674;2023-03-19T06:01:00;97135.56;;;10.47;68.10
71917;BME280;59793;46.506;6.674;2023-03-19T06:03:26;97137.53;;;10.50;67.83
71917;BME280;59793;46.506;6.674;2023-03-19T06:05:52;97144.78;;;10.53;68.67
71917;BME280;59793;46.506;6.674;2023-03-19T06:08:18;97150.72;;;10.50;68.71
71917;BME280;59793;46.506;6.674;2023-03-19T06:10:43;97130.59;;;10.29;69.41
71917;BME280;59793;46.506;6.674;2023-03-19T06:13:09;97121.38;;;10.23;69.41
71917;BME280;59793;46.506;6.674;2023-03-19T06:15:34;97133.44;;;10.37;69.45
71917;BME280;59793;46.506;6.674;2023-03-19T06:18:00;97116.69;;;10.29;68.69
71917;BME280;59793;46.506;6.674;2023-03-19T06:20:26;97123.41;;;10.42;68.48
71917;BME280;59793;46.506;6.674;2023-03-19T06:22:51;97131.00;;;10.60;68.68
71917;BME280;59793;46.506;6.674;2023-03-19T06:25:17;97136.59;;;10.58;68.71
71917;BME280;59793;46.506;6.674;2023-03-19T06:27:42;97159.28;;;10.63;69.13
71917;BME280;59793;46.506;6.674;2023-03-19T06:30:08;97151.22;;;10.56;69.60
71917;BME280;59793;46.506;6.674;2023-03-19T06:32:34;97130.78;;;10.37;69.99
71917;BME280;59793;46.506;6.674;2023-03-19T06:35:00;97133.75;;;10.35;70.16
71917;BME280;59793;46.506;6.674;2023-03-19T06:37:26;97138.16;;;10.31;70.09
71917;BME280;59793;46.506;6.674;2023-03-19T06:39:51;97135.28;;;10.36;69.13
71917;BME280;59793;46.506;6.674;2023-03-19T06:42:21;97128.38;;;10.32;68.88
71917;BME280;59793;46.506;6.674;2023-03-19T06:44:47;97176.13;;;10.74;69.25
71917;BME280;59793;46.506;6.674;2023-03-19T06:47:13;97134.56;;;10.51;69.21
71917;BME280;59793;46.506;6.674;2023-03-19T06:49:38;97150.31;;;10.64;69.08
71917;BME280;59793;46.506;6.674;2023-03-19T06:52:04;97169.03;;;10.74;68.77
71917;BME280;59793;46.506;6.674;2023-03-19T06:54:30;97128.28;;;10.72;68.59
71917;BME280;59793;46.506;6.674;2023-03-19T06:56:55;97153.97;;;10.91;69.46
71917;BME280;59793;46.506;6.674;2023-03-19T06:59:21;97177.88;;;11.14;67.45
71917;BME280;59793;46.506;6.674;2023-03-19T07:01:46;97134.31;;;10.88;67.88
71917;BME280;59793;46.506;6.674;2023-03-19T07:04:12;97158.16;;;11.08;68.03
71917;BME280;59793;46.506;6.674;2023-03-19T07:06:37;97180.44;;;11.26;66.00
71917;BME280;59793;46.506;6.674;2023-03-19T07:09:03;97190.03;;;11.18;66.66
71917;BME280;59793;46.506;6.674;2023-03-19T07:11:29;97178.91;;;11.25;65.75
71917;BME280;59793;46.506;6.674;2023-03-19T07:13:54;97204.09;;;11.38;65.27
71917;BME280;59793;46.506;6.674;2023-03-19T07:16:20;97188.69;;;11.24;64.72
71917;BME280;59793;46.506;6.674;2023-03-19T07:18:45;97158.59;;;11.10;63.94
71917;BME280;59793;46.506;6.674;2023-03-19T07:21:10;97156.53;;;11.03;64.35
71917;BME280;59793;46.506;6.674;2023-03-19T07:23:36;97200.94;;;11.33;64.11
71917;BME280;59793;46.506;6.674;2023-03-19T07:26:01;97175.50;;;11.09;64.58
71917;BME280;59793;46.506;6.674;2023-03-19T07:28:27;97187.75;;;11.17;64.17
71917;BME280;59793;46.506;6.674;2023-03-19T07:30:53;97184.25;;;11.13;64.09
71917;BME280;59793;46.506;6.674;2023-03-19T07:33:19;97219.31;;;11.29;64.07
71917;BME280;59793;46.506;6.674;2023-03-19T07:35:46;97222.78;;;11.33;64.53
71917;BME280;59793;46.506;6.674;2023-03-19T07:38:11;97182.19;;;10.90;64.69
71917;BME280;59793;46.506;6.674;2023-03-19T07:40:37;97201.69;;;11.01;64.01
71917;BME280;59793;46.506;6.674;2023-03-19T07:43:02;97229.59;;;11.18;64.08
71917;BME280;59793;46.506;6.674;2023-03-19T07:45:28;97238.44;;;11.26;65.02
71917;BME280;59793;46.506;6.674;2023-03-19T07:47:53;97231.72;;;11.29;64.19
71917;BME280;59793;46.506;6.674;2023-03-19T07:50:19;97221.69;;;11.18;64.79
71917;BME280;59793;46.506;6.674;2023-03-19T07:52:46;97195.06;;;11.08;64.40
71917;BME280;59793;46.506;6.674;2023-03-19T07:55:12;97247.66;;;11.32;64.24
71917;BME280;59793;46.506;6.674;2023-03-19T07:57:38;97245.44;;;11.34;65.64
71917;BME280;59793;46.506;6.674;2023-03-19T08:00:04;97248.91;;;11.54;64.40
71917;BME280;59793;46.506;6.674;2023-03-19T08:02:29;97247.19;;;11.62;64.98
71917;BME280;59793;46.506;6.674;2023-03-19T08:04:55;97234.28;;;11.25;64.79
71917;BME280;59793;46.506;6.674;2023-03-19T08:07:20;97257.53;;;11.35;65.63
71917;BME280;59793;46.506;6.674;2023-03-19T08:09:46;97237.78;;;11.29;65.16
71917;BME280;59793;46.506;6.674;2023-03-19T08:12:12;97241.16;;;11.30;65.11
71917;BME280;59793;46.506;6.674;2023-03-19T08:14:38;97256.41;;;11.36;65.33
71917;BME280;59793;46.506;6.674;2023-03-19T08:17:03;97231.53;;;11.06;65.85
71917;BME280;59793;46.506;6.674;2023-03-19T08:19:29;97237.91;;;11.05;66.66
71917;BME280;59793;46.506;6.674;2023-03-19T08:21:54;97239.63;;;11.13;66.55
71917;BME280;59793;46.506;6.674;2023-03-19T08:24:20;97269.69;;;11.40;66.08
71917;BME280;59793;46.506;6.674;2023-03-19T08:26:46;97256.31;;;11.17;66.82
71917;BME280;59793;46.506;6.674;2023-03-19T08:29:11;97256.22;;;11.29;66.34
71917;BME280;59793;46.506;6.674;2023-03-19T08:31:37;97249.66;;;11.23;66.71
71917;BME280;59793;46.506;6.674;2023-03-19T08:34:02;97252.06;;;11.28;66.21
71917;BME280;59793;46.506;6.674;2023-03-19T08:36:29;97275.72;;;11.40;66.37
71917;BME280;59793;46.506;6.674;2023-03-19T08:38:55;97248.09;;;11.34;66.17
71917;BME280;59793;46.506;6.674;2023-03-19T08:41:21;97265.25;;;11.60;67.13
71917;BME280;59793;46.506;6.674;2023-03-19T08:43:47;97280.59;;;11.70;67.00
71917;BME280;59793;46.506;6.674;2023-03-19T08:46:12;97270.03;;;11.70;66.87
71917;BME280;59793;46.506;6.674;2023-03-19T08:48:38;97259.03;;;11.68;66.42
71917;BME280;59793;46.506;6.674;2023-03-19T08:51:04;97269.59;;;11.68;66.10
71917;BME280;59793;46.506;6.674;2023-03-19T08:53:30;97238.69;;;11.37;66.51
71917;BME280;59793;46.506;6.674;2023-03-19T08:56:01;97289.09;;;11.63;67.49
71917;BME280;59793;46.506;6.674;2023-03-19T08:58:27;97275.13;;;11.47;67.40
71917;BME280;59793;46.506;6.674;2023-03-19T09:00:52;97262.34;;;11.33;68.13
71917;BME280;59793;46.506;6.674;2023-03-19T09:03:19;97275.22;;;11.51;69.44
71917;BME280;59793;46.506;6.674;2023-03-19T09:05:45;97298.03;;;11.59;69.21
71917;BME280;59793;46.506;6.674;2023-03-19T09:08:11;97281.66;;;11.37;70.11
71917;BME280;59793;46.506;6.674;2023-03-19T09:10:37;97242.06;;;10.90;69.90
71917;BME280;59793;46.506;6.674;2023-03-19T09:13:03;97274.81;;;11.05;70.86
71917;BME280;59793;46.506;6.674;2023-03-19T09:15:29;97268.81;;;11.20;70.73
71917;BME280;59793;46.506;6.674;2023-03-19T09:17:54;97278.44;;;11.44;71.99
71917;BME280;59793;46.506;6.674;2023-03-19T09:20:20;97259.63;;;11.30;72.15
71917;BME280;59793;46.506;6.674;2023-03-19T09:22:46;97287.13;;;11.44;72.28
71917;BME280;59793;46.506;6.674;2023-03-19T09:25:11;97284.56;;;11.48;72.87
71917;BME280;59793;46.506;6.674;2023-03-19T09:27:37;97254.34;;;11.30;72.74
71917;BME280;59793;46.506;6.674;2023-03-19T09:30:03;97262.28;;;11.45;72.13
71917;BME280;59793;46.506;6.674;2023-03-19T09:32:29;97254.38;;;11.45;72.82
71917;BME280;59793;46.506;6.674;2023-03-19T09:34:54;97243.81;;;11.45;72.98
71917;BME280;59793;46.506;6.674;2023-03-19T09:37:20;97283.81;;;11.95;71.70
71917;BME280;59793;46.506;6.674;2023-03-19T09:39:45;97286.41;;;12.11;71.18
71917;BME280;59793;46.506;6.674;2023-03-19T09:44:43;97245.38;;;11.98;69.95
71917;BME280;59793;46.506;6.674;2023-03-19T09:50:20;97279.00;;;12.16;69.38
71917;BME280;59793;46.506;6.674;2023-03-19T09:52:55;97280.97;;;12.04;67.43
71917;BME280;59793;46.506;6.674;2023-03-19T09:57:47;97241.50;;;11.60;68.61
71917;BME280;59793;46.506;6.674;2023-03-19T10:00:18;97282.78;;;11.68;69.26
71917;BME280;59793;46.506;6.674;2023-03-19T10:02:44;97267.63;;;11.81;68.74
71917;BME280;59793;46.506;6.674;2023-03-19T10:05:21;97274.91;;;11.84;69.03
71917;BME280;59793;46.506;6.674;2023-03-19T10:13:17;97278.28;;;11.68;68.78
71917;BME280;59793;46.506;6.674;2023-03-19T10:15:49;97276.56;;;11.76;69.93
71917;BME280;59793;46.506;6.674;2023-03-19T10:18:29;97259.97;;;11.76;68.91
71917;BME280;59793;46.506;6.674;2023-03-19T10:21:02;97239.72;;;11.48;69.22
71917;BME280;59793;46.506;6.674;2023-03-19T10:23:43;97263.72;;;11.59;68.37
71917;BME280;59793;46.506;6.674;2023-03-19T10:26:13;97273.34;;;11.67;68.94
71917;BME280;59793;46.506;6.674;2023-03-19T10:28:48;97284.50;;;11.60;69.11
71917;BME280;59793;46.506;6.674;2023-03-19T10:32:01;97288.91;;;11.72;69.13
71917;BME280;59793;46.506;6.674;2023-03-19T10:34:33;97271.53;;;11.55;68.94
71917;BME280;59793;46.506;6.674;2023-03-19T10:37:21;97291.31;;;11.45;69.98
71917;BME280;59793;46.506;6.674;2023-03-19T10:39:49;97293.19;;;11.45;70.15
71917;BME280;59793;46.506;6.674;2023-03-19T10:45:03;97290.03;;;11.39;71.01
71917;BME280;59793;46.506;6.674;2023-03-19T10:47:37;97289.75;;;11.29;70.51
71917;BME280;59793;46.506;6.674;2023-03-19T10:50:03;97291.56;;;11.40;70.37
71917;BME280;59793;46.506;6.674;2023-03-19T10:52:36;97299.97;;;11.30;70.03
71917;BME280;59793;46.506;6.674;2023-03-19T10:55:11;97291.28;;;11.14;71.02
71917;BME280;59793;46.506;6.674;2023-03-19T10:57:41;97290.25;;;11.18;70.57
71917;BME280;59793;46.506;6.674;2023-03-19T11:00:23;97278.75;;;11.11;71.29
71917;BME280;59793;46.506;6.674;2023-03-19T11:02:51;97259.94;;;10.96;70.93
71917;BME280;59793;46.506;6.674;2023-03-19T11:08:21;97292.44;;;11.16;71.23
71917;BME280;59793;46.506;6.674;2023-03-19T11:10:47;97287.00;;;11.09;71.78
71917;BME280;59793;46.506;6.674;2023-03-19T11:13:27;97273.00;;;11.21;71.16
71917;BME280;59793;46.506;6.674;2023-03-19T11:15:56;97291.63;;;11.28;70.71
71917;BME280;59793;46.506;6.674;2023-03-19T11:18:27;97302.41;;;11.23;70.55
71917;BME280;59793;46.506;6.674;2023-03-19T11:21:24;97288.00;;;11.05;70.71
71917;BME280;59793;46.506;6.674;2023-03-19T11:23:58;97287.78;;;11.10;71.20
71917;BME280;59793;46.506;6.674;2023-03-19T11:26:24;97265.53;;;10.95;70.98
71917;BME280;59793;46.506;6.674;2023-03-19T11:28:52;97278.97;;;10.90;70.78
71917;BME280;59793;46.506;6.674;2023-03-19T11:44:42;97276.97;;;10.99;71.63
71917;BME280;59793;46.506;6.674;2023-03-19T11:58:20;97294.66;;;11.14;71.78
71917;BME280;59793;46.506;6.674;2023-03-19T12:00:55;97289.63;;;11.09;71.85
71917;BME280;59793;46.506;6.674;2023-03-19T12:06:00;97270.66;;;11.04;71.11
71917;BME280;59793;46.506;6.674;2023-03-19T12:08:46;97278.50;;;11.16;71.13
71917;BME280;59793;46.506;6.674;2023-03-19T12:16:56;97288.31;;;11.47;70.02
71917;BME280;59793;46.506;6.674;2023-03-19T12:22:47;97288.00;;;11.48;66.37
71917;BME280;59793;46.506;6.674;2023-03-19T12:30:35;97278.78;;;11.90;65.62
71917;BME280;59793;46.506;6.674;2023-03-19T12:35:36;97275.38;;;12.05;64.41
71917;BME280;59793;46.506;6.674;2023-03-19T12:38:12;97276.28;;;12.13;64.21
71917;BME280;59793;46.506;6.674;2023-03-19T12:40:55;97255.09;;;11.93;64.60
71917;BME280;59793;46.506;6.674;2023-03-19T12:46:35;97280.00;;;12.28;63.69
71917;BME280;59793;46.506;6.674;2023-03-19T12:52:01;97270.63;;;12.88;63.57
71917;BME280;59793;46.506;6.674;2023-03-19T12:54:38;97262.47;;;12.97;61.78
71917;BME280;59793;46.506;6.674;2023-03-19T13:05:42;97234.97;;;14.27;57.24
71917;BME280;59793;46.506;6.674;2023-03-19T13:08:16;97220.91;;;14.23;56.76
71917;BME280;59793;46.506;6.674;2023-03-19T13:10:44;97228.28;;;14.67;56.18
71917;BME280;59793;46.506;6.674;2023-03-19T13:13:30;97247.59;;;14.38;57.82
71917;BME280;59793;46.506;6.674;2023-03-19T13:16:18;97218.44;;;14.38;57.55
71917;BME280;59793;46.506;6.674;2023-03-19T13:18:56;97254.75;;;15.01;57.90
71917;BME280;59793;46.506;6.674;2023-03-19T13:21:31;97247.34;;;15.17;57.70
71917;BME280;59793;46.506;6.674;2023-03-19T13:24:20;97242.63;;;15.00;56.56
71917;BME280;59793;46.506;6.674;2023-03-19T13:26:48;97235.41;;;14.97;56.73
71917;BME280;59793;46.506;6.674;2023-03-19T13:29:31;97203.09;;;14.88;55.59
71917;BME280;59793;46.506;6.674;2023-03-19T13:32:06;97246.09;;;15.48;54.15
71917;BME280;59793;46.506;6.674;2023-03-19T13:34:34;97228.88;;;15.76;53.89
71917;BME280;59793;46.506;6.674;2023-03-19T13:39:35;97221.50;;;16.17;51.44
71917;BME280;59793;46.506;6.674;2023-03-19T13:46:55;97230.25;;;15.59;51.96
71917;BME280;59793;46.506;6.674;2023-03-19T13:49:28;97230.69;;;15.68;52.17
71917;BME280;59793;46.506;6.674;2023-03-19T13:54:42;97230.09;;;15.38;53.87
71917;BME280;59793;46.506;6.674;2023-03-19T13:59:41;97211.91;;;14.95;55.80
71917;BME280;59793;46.506;6.674;2023-03-19T14:05:07;97216.13;;;14.32;61.33
71917;BME280;59793;46.506;6.674;2023-03-19T14:07:41;97198.09;;;14.45;59.88
71917;BME280;59793;46.506;6.674;2023-03-19T14:10:18;97212.59;;;14.89;57.00
71917;BME280;59793;46.506;6.674;2023-03-19T14:12:45;97185.19;;;15.22;55.43
71917;BME280;59793;46.506;6.674;2023-03-19T14:17:44;97188.31;;;15.31;54.27
71917;BME280;59793;46.506;6.674;2023-03-19T14:25:17;97192.13;;;14.52;57.75
71917;BME280;59793;46.506;6.674;2023-03-19T14:27:49;97210.09;;;14.35;59.36
71917;BME280;59793;46.506;6.674;2023-03-19T14:30:36;97197.03;;;14.20;59.61
71917;BME280;59793;46.506;6.674;2023-03-19T14:33:05;97186.91;;;13.99;59.97
71917;BME280;59793;46.506;6.674;2023-03-19T14:35:39;97207.97;;;13.88;62.20
71917;BME280;59793;46.506;6.674;2023-03-19T14:38:37;97193.47;;;13.52;63.03
71917;BME280;59793;46.506;6.674;2023-03-19T14:41:05;97206.84;;;13.62;62.95
71917;BME280;59793;46.506;6.674;2023-03-19T14:49:42;97209.75;;;12.85;65.45
71917;BME280;59793;46.506;6.674;2023-03-19T14:52:34;97189.59;;;12.77;66.22
71917;BME280;59793;46.506;6.674;2023-03-19T14:55:12;97176.13;;;12.85;66.47
71917;BME280;59793;46.506;6.674;2023-03-19T14:57:38;97188.91;;;13.26;65.42